sensor_id;sensor_type;location;lat;lon;timestamp;pressure;altitude;pressure_sealevel;temperature;humidity
14269;BME280;7218;51.480;7.006;2023-07-31T00:00:33;99539.97;;;11.72;100.00
14269;BME280;7218;51.480;7.006;2023-07-31T00:03:01;99531.22;;;11.74;100.00
14269;BME280;7218;51.480;7.006;2023-07-31T00:05:28;99527.94;;;11.68;100.00
14269;BME280;7218;51.480;7.006;2023-07-31T00:07:54;99527.81;;;11.71;100.00
14269;BME280;7218;51.480;7.006;2023-07-31T00:10:21;99532.81;;;12.01;100.00
14269;BME280;7218;51.480;7.006;2023-07-31T00:12:47;99527.47;;;11.81;100.00
14269;BME280;7218;51.480;7.006;2023-07-31T00:15:14;99528.78;;;11.68;100.00
14269;BME280;7218;51.480;7.006;2023-07-31T00:17:41;99527.88;;;11.69;100.00
14269;BME280;7218;51.480;7.006;2023-07-31T00:20:10;99537.53;;;11.67;100.00
14269;BME280;7218;51.480;7.006;2023-07-31T00:22:36;99518.84;;;11.54;100.00
14269;BME280;7218;51.480;7.006;2023-07-31T00:25:03;99527.28;;;11.86;100.00
14269;BME280;7218;51.480;7.006;2023-07-31T00:27:31;99526.03;;;11.73;100.00
14269;BME280;7218;51.480;7.006;2023-07-31T00:29:58;99527.53;;;11.80;100.00
14269;BME280;7218;51.480;7.006;2023-07-31T00:32:24;99520.91;;;11.70;100.00
14269;BME280;7218;51.480;7.006;2023-07-31T00:34:52;99526.69;;;11.79;100.00
14269;BME280;7218;51.480;7.006;2023-07-31T00:37:20;99528.38;;;12.03;100.00
14269;BME280;7218;51.480;7.006;2023-07-31T00:39:46;99521.09;;;12.12;100.00
14269;BME280;7218;51.480;7.006;2023-07-31T00:42:12;99521.31;;;12.05;100.00
14269;BME280;7218;51.480;7.006;2023-07-31T00:44:39;99528.25;;;12.06;100.00
14269;BME280;7218;51.480;7.006;2023-07-31T00:47:05;99522.34;;;11.78;100.00
14269;BME280;7218;51.480;7.006;2023-07-31T00:49:32;99512.47;;;11.86;100.00
14269;BME280;7218;51.480;7.006;2023-07-31T00:51:59;99518.84;;;11.79;100.00
14269;BME280;7218;51.480;7.006;2023-07-31T00:54:27;99515.31;;;11.80;100.00
14269;BME280;7218;51.480;7.006;2023-07-31T00:56:54;99524.84;;;11.81;100.00
14269;BME280;7218;51.480;7.006;2023-07-31T00:59:21;99514.41;;;11.81;100.00
14269;BME280;7218;51.480;7.006;2023-07-31T01:01:47;99518.50;;;11.88;100.00
14269;BME280;7218;51.480;7.006;2023-07-31T01:04:14;99521.44;;;12.02;100.00
14269;BME280;7218;51.480;7.006;2023-07-31T01:06:47;99515.41;;;12.00;100.00
14269;BME280;7218;51.480;7.006;2023-07-31T01:09:20;99523.25;;;12.00;100.00
14269;BME280;7218;51.480;7.006;2023-07-31T01:11:57;99528.06;;;11.89;100.00
14269;BME280;7218;51.480;7.006;2023-07-31T01:14:25;99518.31;;;11.93;100.00
14269;BME280;7218;51.480;7.006;2023-07-31T01:16:51;99519.56;;;11.83;100.00
14269;BME280;7218;51.480;7.006;2023-07-31T01:19:21;99509.97;;;12.06;100.00
14269;BME280;7218;51.480;7.006;2023-07-31T01:22:02;99504.66;;;12.10;100.00
14269;BME280;7218;51.480;7.006;2023-07-31T01:24:42;99514.91;;;12.14;100.00
14269;BME280;7218;51.480;7.006;2023-07-31T01:27:21;99522.97;;;12.08;100.00
14269;BME280;7218;51.480;7.006;2023-07-31T01:29:55;99526.44;;;12.08;100.00
14269;BME280;7218;51.480;7.006;2023-07-31T01:32:22;99524.78;;;12.06;100.00
14269;BME280;7218;51.480;7.006;2023-07-31T01:34:50;99518.16;;;11.97;100.00
14269;BME280;7218;51.480;7.006;2023-07-31T01:37:17;99510.63;;;12.35;100.00
14269;BME280;7218;51.480;7.006;2023-07-31T01:39:43;99519.06;;;12.20;100.00
14269;BME280;7218;51.480;7.006;2023-07-31T01:42:11;99519.38;;;12.11;100.00
14269;BME280;7218;51.480;7.006;2023-07-31T01:44:39;99509.00;;;12.09;100.00
14269;BME280;7218;51.480;7.006;2023-07-31T01:47:05;99502.81;;;11.88;100.00
14269;BME280;7218;51.480;7.006;2023-07-31T01:49:32;99509.41;;;11.98;100.00
14269;BME280;7218;51.480;7.006;2023-07-31T01:51:58;99505.41;;;12.12;100.00
14269;BME280;7218;51.480;7.006;2023-07-31T01:54:25;99507.56;;;12.00;100.00
14269;BME280;7218;51.480;7.006;2023-07-31T01:56:51;99498.97;;;11.98;100.00
14269;BME280;7218;51.480;7.006;2023-07-31T01:59:18;99510.91;;;12.27;100.00
14269;BME280;7218;51.480;7.006;2023-07-31T02:01:45;99496.69;;;12.13;100.00
14269;BME280;7218;51.480;7.006;2023-07-31T02:04:12;99496.44;;;12.19;100.00
14269;BME280;7218;51.480;7.006;2023-07-31T02:06:38;99493.78;;;12.42;100.00
14269;BME280;7218;51.480;7.006;2023-07-31T02:09:05;99494.16;;;12.33;100.00
14269;BME280;7218;51.480;7.006;2023-07-31T02:11:31;99492.56;;;12.29;100.00
14269;BME280;7218;51.480;7.006;2023-07-31T02:13:58;99488.97;;;12.31;100.00
14269;BME280;7218;51.480;7.006;2023-07-31T02:16:24;99491.00;;;12.01;100.00
14269;BME280;7218;51.480;7.006;2023-07-31T02:18:52;99485.13;;;12.18;100.00
14269;BME280;7218;51.480;7.006;2023-07-31T02:21:19;99479.28;;;12.12;100.00
14269;BME280;7218;51.480;7.006;2023-07-31T02:23:45;99486.22;;;12.13;100.00
14269;BME280;7218;51.480;7.006;2023-07-31T02:26:12;99481.34;;;12.03;100.00
14269;BME280;7218;51.480;7.006;2023-07-31T02:28:38;99480.75;;;12.19;100.00
14269;BME280;7218;51.480;7.006;2023-07-31T02:31:08;99479.59;;;12.26;100.00
14269;BME280;7218;51.480;7.006;2023-07-31T02:33:34;99481.97;;;12.10;100.00
14269;BME280;7218;51.480;7.006;2023-07-31T02:36:02;99480.03;;;12.15;100.00
14269;BME280;7218;51.480;7.006;2023-07-31T02:38:29;99478.50;;;12.10;100.00
14269;BME280;7218;51.480;7.006;2023-07-31T02:40:55;99477.72;;;12.07;100.00
14269;BME280;7218;51.480;7.006;2023-07-31T02:43:22;99477.34;;;12.17;100.00
14269;BME280;7218;51.480;7.006;2023-07-31T02:45:51;99474.69;;;12.18;100.00
14269;BME280;7218;51.480;7.006;2023-07-31T02:48:17;99475.91;;;12.10;100.00
14269;BME280;7218;51.480;7.006;2023-07-31T02:50:44;99472.34;;;12.11;100.00
14269;BME280;7218;51.480;7.006;2023-07-31T02:53:12;99473.81;;;12.18;100.00
14269;BME280;7218;51.480;7.006;2023-07-31T02:55:38;99473.81;;;12.18;100.00
14269;BME280;7218;51.480;7.006;2023-07-31T02:58:05;99467.88;;;12.14;100.00
14269;BME280;7218;51.480;7.006;2023-07-31T03:00:31;99469.81;;;12.09;100.00
14269;BME280;7218;51.480;7.006;2023-07-31T03:02:58;99469.59;;;12.15;100.00
14269;BME280;7218;51.480;7.006;2023-07-31T03:05:24;99467.50;;;12.23;100.00
14269;BME280;7218;51.480;7.006;2023-07-31T03:07:51;99459.94;;;11.94;100.00
14269;BME280;7218;51.480;7.006;2023-07-31T03:10:18;99461.66;;;12.17;100.00
14269;BME280;7218;51.480;7.006;2023-07-31T03:12:46;99454.22;;;12.29;100.00
14269;BME280;7218;51.480;7.006;2023-07-31T03:15:13;99459.25;;;12.34;100.00
14269;BME280;7218;51.480;7.006;2023-07-31T03:17:39;99455.34;;;12.22;100.00
14269;BME280;7218;51.480;7.006;2023-07-31T03:20:06;99461.56;;;12.20;100.00
14269;BME280;7218;51.480;7.006;2023-07-31T03:22:33;99462.03;;;12.07;100.00
14269;BME280;7218;51.480;7.006;2023-07-31T03:25:00;99453.72;;;12.20;100.00
14269;BME280;7218;51.480;7.006;2023-07-31T03:27:28;99457.25;;;12.19;100.00
14269;BME280;7218;51.480;7.006;2023-07-31T03:29:55;99450.25;;;12.19;100.00
14269;BME280;7218;51.480;7.006;2023-07-31T03:32:21;99454.69;;;12.17;100.00
14269;BME280;7218;51.480;7.006;2023-07-31T03:34:49;99457.91;;;12.24;100.00
14269;BME280;7218;51.480;7.006;2023-07-31T03:37:15;99456.88;;;12.28;100.00
14269;BME280;7218;51.480;7.006;2023-07-31T03:39:41;99460.03;;;12.36;100.00
14269;BME280;7218;51.480;7.006;2023-07-31T03:42:08;99452.97;;;12.16;100.00
14269;BME280;7218;51.480;7.006;2023-07-31T03:44:36;99459.03;;;12.40;100.00
14269;BME280;7218;51.480;7.006;2023-07-31T03:47:02;99452.44;;;12.30;100.00
14269;BME280;7218;51.480;7.006;2023-07-31T03:49:29;99455.97;;;12.29;100.00
14269;BME280;7218;51.480;7.006;2023-07-31T03:51:56;99446.28;;;12.31;100.00
14269;BME280;7218;51.480;7.006;2023-07-31T03:54:22;99448.31;;;12.24;100.00
14269;BME280;7218;51.480;7.006;2023-07-31T03:56:49;99446.72;;;12.42;100.00
14269;BME280;7218;51.480;7.006;2023-07-31T03:59:15;99447.47;;;12.24;100.00
14269;BME280;7218;51.480;7.006;2023-07-31T04:01:43;99441.00;;;12.54;100.00
14269;BME280;7218;51.480;7.006;2023-07-31T04:04:09;99435.41;;;12.63;100.00
14269;BME280;7218;51.480;7.006;2023-07-31T04:06:36;99437.47;;;12.55;100.00
14269;BME280;7218;51.480;7.006;2023-07-31T04:09:02;99443.63;;;12.54;100.00
14269;BME280;7218;51.480;7.006;2023-07-31T04:11:29;99438.44;;;12.52;100.00
14269;BME280;7218;51.480;7.006;2023-07-31T04:13:55;99435.81;;;12.52;100.00
14269;BME280;7218;51.480;7.006;2023-07-31T04:16:22;99436.81;;;12.50;100.00
14269;BME280;7218;51.480;7.006;2023-07-31T04:18:50;99432.59;;;12.46;100.00
14269;BME280;7218;51.480;7.006;2023-07-31T04:21:16;99431.94;;;12.41;100.00
14269;BME280;7218;51.480;7.006;2023-07-31T04:23:43;99427.06;;;12.54;100.00
14269;BME280;7218;51.480;7.006;2023-07-31T04:26:09;99428.22;;;12.68;100.00
14269;BME280;7218;51.480;7.006;2023-07-31T04:28:36;99420.22;;;12.71;100.00
14269;BME280;7218;51.480;7.006;2023-07-31T04:31:02;99417.84;;;12.65;100.00
14269;BME280;7218;51.480;7.006;2023-07-31T04:33:29;99420.09;;;12.54;100.00
14269;BME280;7218;51.480;7.006;2023-07-31T04:35:59;99415.00;;;12.71;100.00
14269;BME280;7218;51.480;7.006;2023-07-31T04:38:25;99416.91;;;12.46;100.00
14269;BME280;7218;51.480;7.006;2023-07-31T04:40:52;99414.56;;;12.40;100.00
14269;BME280;7218;51.480;7.006;2023-07-31T04:43:18;99411.06;;;12.61;100.00
14269;BME280;7218;51.480;7.006;2023-07-31T04:45:45;99416.47;;;12.57;100.00
14269;BME280;7218;51.480;7.006;2023-07-31T04:48:12;99421.66;;;12.58;100.00
14269;BME280;7218;51.480;7.006;2023-07-31T04:50:39;99413.28;;;12.70;100.00
14269;BME280;7218;51.480;7.006;2023-07-31T04:53:07;99411.53;;;12.91;100.00
14269;BME280;7218;51.480;7.006;2023-07-31T04:55:33;99412.56;;;12.67;100.00
14269;BME280;7218;51.480;7.006;2023-07-31T04:58:00;99407.66;;;12.59;100.00
14269;BME280;7218;51.480;7.006;2023-07-31T05:00:26;99408.19;;;12.67;100.00
14269;BME280;7218;51.480;7.006;2023-07-31T05:02:53;99411.34;;;12.55;100.00
14269;BME280;7218;51.480;7.006;2023-07-31T05:05:19;99396.47;;;12.76;100.00
14269;BME280;7218;51.480;7.006;2023-07-31T05:07:46;99401.59;;;12.59;100.00
14269;BME280;7218;51.480;7.006;2023-07-31T05:10:14;99394.06;;;12.71;100.00
14269;BME280;7218;51.480;7.006;2023-07-31T05:12:40;99389.09;;;12.85;100.00
14269;BME280;7218;51.480;7.006;2023-07-31T05:15:07;99388.19;;;12.86;100.00
14269;BME280;7218;51.480;7.006;2023-07-31T05:17:34;99385.25;;;12.94;100.00
14269;BME280;7218;51.480;7.006;2023-07-31T05:20:01;99390.09;;;12.83;100.00
14269;BME280;7218;51.480;7.006;2023-07-31T05:22:27;99374.97;;;12.69;100.00
14269;BME280;7218;51.480;7.006;2023-07-31T05:24:53;99386.09;;;12.94;100.00
14269;BME280;7218;51.480;7.006;2023-07-31T05:27:21;99380.06;;;12.92;100.00
14269;BME280;7218;51.480;7.006;2023-07-31T05:29:48;99383.53;;;12.93;100.00
14269;BME280;7218;51.480;7.006;2023-07-31T05:32:14;99381.53;;;13.00;100.00
14269;BME280;7218;51.480;7.006;2023-07-31T05:34:41;99375.44;;;12.99;100.00
14269;BME280;7218;51.480;7.006;2023-07-31T05:37:09;99374.38;;;13.03;100.00
14269;BME280;7218;51.480;7.006;2023-07-31T05:39:36;99373.03;;;12.94;100.00
14269;BME280;7218;51.480;7.006;2023-07-31T05:42:03;99365.66;;;13.03;100.00
14269;BME280;7218;51.480;7.006;2023-07-31T05:44:31;99358.25;;;13.14;100.00
14269;BME280;7218;51.480;7.006;2023-07-31T05:46:57;99364.81;;;13.02;100.00
14269;BME280;7218;51.480;7.006;2023-07-31T05:49:24;99366.47;;;13.05;100.00
14269;BME280;7218;51.480;7.006;2023-07-31T05:51:50;99363.25;;;12.98;100.00
14269;BME280;7218;51.480;7.006;2023-07-31T05:54:16;99353.09;;;12.90;100.00
14269;BME280;7218;51.480;7.006;2023-07-31T05:56:43;99349.34;;;12.77;100.00
14269;BME280;7218;51.480;7.006;2023-07-31T05:59:11;99351.00;;;12.80;100.00
14269;BME280;7218;51.480;7.006;2023-07-31T06:01:40;99350.00;;;12.82;100.00
14269;BME280;7218;51.480;7.006;2023-07-31T06:04:06;99347.72;;;12.75;100.00
14269;BME280;7218;51.480;7.006;2023-07-31T06:06:33;99352.16;;;12.73;100.00
14269;BME280;7218;51.480;7.006;2023-07-31T06:08:59;99337.16;;;12.76;100.00
14269;BME280;7218;51.480;7.006;2023-07-31T06:11:26;99343.84;;;12.83;100.00
14269;BME280;7218;51.480;7.006;2023-07-31T06:13:52;99336.69;;;13.07;100.00
14269;BME280;7218;51.480;7.006;2023-07-31T06:16:19;99344.75;;;13.03;100.00
14269;BME280;7218;51.480;7.006;2023-07-31T06:18:48;99341.06;;;13.07;100.00
14269;BME280;7218;51.480;7.006;2023-07-31T06:21:14;99329.00;;;12.84;100.00
14269;BME280;7218;51.480;7.006;2023-07-31T06:23:41;99336.38;;;12.94;100.00
14269;BME280;7218;51.480;7.006;2023-07-31T06:26:08;99329.84;;;12.84;100.00
14269;BME280;7218;51.480;7.006;2023-07-31T06:28:34;99334.78;;;12.90;100.00
14269;BME280;7218;51.480;7.006;2023-07-31T06:31:01;99338.63;;;12.83;100.00
14269;BME280;7218;51.480;7.006;2023-07-31T06:33:27;99339.25;;;12.88;100.00
14269;BME280;7218;51.480;7.006;2023-07-31T06:35:55;99335.59;;;12.92;100.00
14269;BME280;7218;51.480;7.006;2023-07-31T06:38:23;99332.84;;;12.75;100.00
14269;BME280;7218;51.480;7.006;2023-07-31T06:40:50;99341.22;;;12.83;100.00
14269;BME280;7218;51.480;7.006;2023-07-31T06:43:17;99335.34;;;12.78;100.00
14269;BME280;7218;51.480;7.006;2023-07-31T06:45:43;99335.19;;;12.81;100.00
14269;BME280;7218;51.480;7.006;2023-07-31T06:48:10;99334.31;;;12.62;100.00
14269;BME280;7218;51.480;7.006;2023-07-31T06:50:37;99327.50;;;12.78;100.00
14269;BME280;7218;51.480;7.006;2023-07-31T06:53:05;99333.19;;;12.88;100.00
14269;BME280;7218;51.480;7.006;2023-07-31T06:55:32;99332.53;;;12.63;100.00
14269;BME280;7218;51.480;7.006;2023-07-31T06:57:58;99339.88;;;12.75;100.00
14269;BME280;7218;51.480;7.006;2023-07-31T07:00:25;99340.19;;;12.67;100.00
14269;BME280;7218;51.480;7.006;2023-07-31T07:02:51;99342.16;;;12.62;100.00
14269;BME280;7218;51.480;7.006;2023-07-31T07:05:18;99343.13;;;12.60;100.00
14269;BME280;7218;51.480;7.006;2023-07-31T07:07:44;99338.63;;;12.63;100.00
14269;BME280;7218;51.480;7.006;2023-07-31T07:10:12;99336.84;;;12.64;100.00
14269;BME280;7218;51.480;7.006;2023-07-31T07:12:39;99338.84;;;12.37;100.00
14269;BME280;7218;51.480;7.006;2023-07-31T07:15:06;99330.25;;;12.55;100.00
14269;BME280;7218;51.480;7.006;2023-07-31T07:17:33;99329.13;;;12.40;100.00
14269;BME280;7218;51.480;7.006;2023-07-31T07:19:59;99329.25;;;12.37;100.00
14269;BME280;7218;51.480;7.006;2023-07-31T07:22:26;99313.72;;;12.34;100.00
14269;BME280;7218;51.480;7.006;2023-07-31T07:24:53;99329.97;;;12.41;100.00
14269;BME280;7218;51.480;7.006;2023-07-31T07:27:21;99320.09;;;12.27;100.00
14269;BME280;7218;51.480;7.006;2023-07-31T07:29:50;99310.81;;;12.61;100.00
14269;BME280;7218;51.480;7.006;2023-07-31T07:32:17;99320.56;;;12.57;100.00
14269;BME280;7218;51.480;7.006;2023-07-31T07:34:43;99312.97;;;12.31;100.00
14269;BME280;7218;51.480;7.006;2023-07-31T07:37:10;99316.19;;;12.37;100.00
14269;BME280;7218;51.480;7.006;2023-07-31T07:39:36;99318.94;;;12.34;100.00
14269;BME280;7218;51.480;7.006;2023-07-31T07:42:03;99310.25;;;12.54;100.00
14269;BME280;7218;51.480;7.006;2023-07-31T07:44:31;99309.31;;;12.75;100.00
14269;BME280;7218;51.480;7.006;2023-07-31T07:46:57;99319.06;;;12.51;100.00
14269;BME280;7218;51.480;7.006;2023-07-31T07:49:24;99314.03;;;12.47;100.00
14269;BME280;7218;51.480;7.006;2023-07-31T07:51:50;99312.97;;;12.31;100.00
14269;BME280;7218;51.480;7.006;2023-07-31T07:54:17;99312.59;;;12.60;100.00
14269;BME280;7218;51.480;7.006;2023-07-31T07:56:44;99313.63;;;12.56;100.00
14269;BME280;7218;51.480;7.006;2023-07-31T07:59:10;99316.00;;;12.42;100.00
14269;BME280;7218;51.480;7.006;2023-07-31T08:01:38;99320.91;;;12.29;100.00
14269;BME280;7218;51.480;7.006;2023-07-31T08:04:05;99307.81;;;12.29;100.00
14269;BME280;7218;51.480;7.006;2023-07-31T08:06:31;99315.44;;;12.14;100.00
14269;BME280;7218;51.480;7.006;2023-07-31T08:08:58;99317.00;;;12.18;100.00
14269;BME280;7218;51.480;7.006;2023-07-31T08:11:30;99300.88;;;12.28;100.00
14269;BME280;7218;51.480;7.006;2023-07-31T08:13:57;99303.56;;;12.47;100.00
14269;BME280;7218;51.480;7.006;2023-07-31T08:16:23;99305.31;;;12.26;100.00
14269;BME280;7218;51.480;7.006;2023-07-31T08:18:51;99305.25;;;12.28;100.00
14269;BME280;7218;51.480;7.006;2023-07-31T08:21:17;99296.13;;;12.58;100.00
14269;BME280;7218;51.480;7.006;2023-07-31T08:23:44;99298.53;;;12.42;100.00
14269;BME280;7218;51.480;7.006;2023-07-31T08:26:15;99300.34;;;12.40;100.00
14269;BME280;7218;51.480;7.006;2023-07-31T08:28:41;99289.91;;;12.40;100.00
14269;BME280;7218;51.480;7.006;2023-07-31T08:31:08;99294.66;;;12.31;100.00
14269;BME280;7218;51.480;7.006;2023-07-31T08:33:34;99283.38;;;12.10;100.00
14269;BME280;7218;51.480;7.006;2023-07-31T08:36:02;99298.94;;;12.33;100.00
14269;BME280;7218;51.480;7.006;2023-07-31T08:38:29;99282.41;;;12.33;100.00
14269;BME280;7218;51.480;7.006;2023-07-31T08:40:56;99284.75;;;12.39;100.00
14269;BME280;7218;51.480;7.006;2023-07-31T08:43:25;99283.91;;;12.38;100.00
14269;BME280;7218;51.480;7.006;2023-07-31T08:45:52;99272.53;;;12.60;100.00
14269;BME280;7218;51.480;7.006;2023-07-31T08:48:20;99286.56;;;12.37;100.00
14269;BME280;7218;51.480;7.006;2023-07-31T08:50:47;99275.72;;;12.46;100.00
14269;BME280;7218;51.480;7.006;2023-07-31T08:53:15;99277.03;;;12.56;100.00
14269;BME280;7218;51.480;7.006;2023-07-31T08:55:42;99277.41;;;12.47;100.00
14269;BME280;7218;51.480;7.006;2023-07-31T08:58:09;99287.69;;;12.51;100.00
14269;BME280;7218;51.480;7.006;2023-07-31T09:00:40;99288.25;;;12.78;100.00
14269;BME280;7218;51.480;7.006;2023-07-31T09:03:12;99299.31;;;12.85;100.00
14269;BME280;7218;51.480;7.006;2023-07-31T09:05:42;99299.31;;;12.24;100.00
14269;BME280;7218;51.480;7.006;2023-07-31T09:08:09;99308.97;;;12.22;100.00
14269;BME280;7218;51.480;7.006;2023-07-31T09:10:40;99297.91;;;12.16;100.00
14269;BME280;7218;51.480;7.006;2023-07-31T09:13:07;99307.03;;;11.85;100.00
14269;BME280;7218;51.480;7.006;2023-07-31T09:15:35;99286.41;;;11.99;100.00
14269;BME280;7218;51.480;7.006;2023-07-31T09:18:03;99290.56;;;12.05;100.00
14269;BME280;7218;51.480;7.006;2023-07-31T09:20:30;99276.09;;;12.17;100.00
14269;BME280;7218;51.480;7.006;2023-07-31T09:23:05;99284.56;;;12.01;100.00
14269;BME280;7218;51.480;7.006;2023-07-31T09:25:32;99286.81;;;12.11;100.00
14269;BME280;7218;51.480;7.006;2023-07-31T09:28:01;99275.59;;;12.49;100.00
14269;BME280;7218;51.480;7.006;2023-07-31T09:30:27;99284.72;;;12.79;100.00
14269;BME280;7218;51.480;7.006;2023-07-31T09:33:01;99283.31;;;12.32;100.00
14269;BME280;7218;51.480;7.006;2023-07-31T09:35:29;99279.28;;;12.45;100.00
14269;BME280;7218;51.480;7.006;2023-07-31T09:37:57;99269.81;;;12.61;100.00
14269;BME280;7218;51.480;7.006;2023-07-31T09:40:29;99265.34;;;12.65;100.00
14269;BME280;7218;51.480;7.006;2023-07-31T09:42:56;99268.34;;;12.94;100.00
14269;BME280;7218;51.480;7.006;2023-07-31T09:45:25;99267.91;;;12.85;100.00
14269;BME280;7218;51.480;7.006;2023-07-31T09:47:52;99261.88;;;12.83;100.00
14269;BME280;7218;51.480;7.006;2023-07-31T09:50:20;99269.81;;;12.61;100.00
14269;BME280;7218;51.480;7.006;2023-07-31T09:52:47;99276.38;;;12.51;100.00
14269;BME280;7218;51.480;7.006;2023-07-31T09:55:13;99259.56;;;12.95;100.00
14269;BME280;7218;51.480;7.006;2023-07-31T09:57:41;99260.78;;;13.07;100.00
14269;BME280;7218;51.480;7.006;2023-07-31T10:00:09;99261.28;;;12.58;100.00
14269;BME280;7218;51.480;7.006;2023-07-31T10:02:37;99249.72;;;13.01;100.00
14269;BME280;7218;51.480;7.006;2023-07-31T10:05:05;99250.28;;;12.70;100.00
14269;BME280;7218;51.480;7.006;2023-07-31T10:07:36;99251.38;;;13.03;100.00
14269;BME280;7218;51.480;7.006;2023-07-31T10:10:07;99251.94;;;12.71;100.00
14269;BME280;7218;51.480;7.006;2023-07-31T10:12:34;99246.50;;;12.75;100.00
14269;BME280;7218;51.480;7.006;2023-07-31T10:15:02;99244.53;;;12.80;100.00
14269;BME280;7218;51.480;7.006;2023-07-31T10:17:30;99241.81;;;12.83;100.00
14269;BME280;7218;51.480;7.006;2023-07-31T10:19:59;99248.88;;;12.81;100.00
14269;BME280;7218;51.480;7.006;2023-07-31T10:22:27;99249.66;;;12.83;100.00
14269;BME280;7218;51.480;7.006;2023-07-31T10:24:54;99251.19;;;12.69;100.00
14269;BME280;7218;51.480;7.006;2023-07-31T10:27:22;99245.00;;;12.90;100.00
14269;BME280;7218;51.480;7.006;2023-07-31T10:29:48;99253.72;;;12.70;100.00
14269;BME280;7218;51.480;7.006;2023-07-31T10:32:16;99252.47;;;12.60;100.00
14269;BME280;7218;51.480;7.006;2023-07-31T10:34:43;99242.50;;;12.68;100.00
14269;BME280;7218;51.480;7.006;2023-07-31T10:37:25;99253.97;;;12.84;100.00
14269;BME280;7218;51.480;7.006;2023-07-31T10:39:59;99251.09;;;12.70;100.00
14269;BME280;7218;51.480;7.006;2023-07-31T10:42:32;99243.91;;;13.14;100.00
14269;BME280;7218;51.480;7.006;2023-07-31T10:45:02;99252.66;;;12.94;100.00
14269;BME280;7218;51.480;7.006;2023-07-31T10:47:28;99247.09;;;12.82;100.00
14269;BME280;7218;51.480;7.006;2023-07-31T10:50:16;99240.59;;;13.29;100.00
14269;BME280;7218;51.480;7.006;2023-07-31T10:52:46;99242.63;;;13.23;100.00
14269;BME280;7218;51.480;7.006;2023-07-31T10:55:15;99241.41;;;13.30;100.00
14269;BME280;7218;51.480;7.006;2023-07-31T10:57:44;99253.25;;;13.20;100.00
14269;BME280;7218;51.480;7.006;2023-07-31T11:00:18;99230.13;;;13.29;100.00
14269;BME280;7218;51.480;7.006;2023-07-31T11:02:56;99245.44;;;13.37;100.00
14269;BME280;7218;51.480;7.006;2023-07-31T11:05:41;99243.53;;;13.22;100.00
14269;BME280;7218;51.480;7.006;2023-07-31T11:08:12;99228.47;;;13.27;100.00
14269;BME280;7218;51.480;7.006;2023-07-31T11:10:39;99230.03;;;13.31;100.00
14269;BME280;7218;51.480;7.006;2023-07-31T11:13:05;99236.91;;;13.69;100.00
14269;BME280;7218;51.480;7.006;2023-07-31T11:15:32;99239.00;;;13.44;100.00
14269;BME280;7218;51.480;7.006;2023-07-31T11:18:00;99223.53;;;13.57;100.00
14269;BME280;7218;51.480;7.006;2023-07-31T11:20:29;99226.09;;;13.75;100.00
14269;BME280;7218;51.480;7.006;2023-07-31T11:22:59;99228.59;;;13.43;100.00
14269;BME280;7218;51.480;7.006;2023-07-31T11:25:28;99228.75;;;13.93;100.00
14269;BME280;7218;51.480;7.006;2023-07-31T11:27:55;99229.53;;;14.12;100.00
14269;BME280;7218;51.480;7.006;2023-07-31T11:30:21;99233.75;;;13.80;100.00
14269;BME280;7218;51.480;7.006;2023-07-31T11:32:48;99239.94;;;13.96;100.00
14269;BME280;7218;51.480;7.006;2023-07-31T11:35:15;99234.16;;;13.90;100.00
14269;BME280;7218;51.480;7.006;2023-07-31T11:37:42;99223.50;;;13.93;100.00
14269;BME280;7218;51.480;7.006;2023-07-31T11:40:10;99225.59;;;14.20;100.00
14269;BME280;7218;51.480;7.006;2023-07-31T11:42:38;99222.25;;;14.00;100.00
14269;BME280;7218;51.480;7.006;2023-07-31T11:45:05;99223.50;;;14.27;100.00
14269;BME280;7218;51.480;7.006;2023-07-31T11:47:33;99224.16;;;14.49;100.00
14269;BME280;7218;51.480;7.006;2023-07-31T11:50:01;99229.91;;;14.21;100.00
14269;BME280;7218;51.480;7.006;2023-07-31T11:52:29;99229.66;;;14.26;100.00
14269;BME280;7218;51.480;7.006;2023-07-31T11:54:58;99220.13;;;14.08;100.00
14269;BME280;7218;51.480;7.006;2023-07-31T11:57:25;99224.44;;;13.92;100.00
14269;BME280;7218;51.480;7.006;2023-07-31T11:59:53;99218.09;;;13.96;100.00
14269;BME280;7218;51.480;7.006;2023-07-31T12:02:21;99214.88;;;14.08;100.00
14269;BME280;7218;51.480;7.006;2023-07-31T12:04:48;99219.91;;;14.12;100.00
14269;BME280;7218;51.480;7.006;2023-07-31T12:07:15;99223.34;;;13.96;100.00
14269;BME280;7218;51.480;7.006;2023-07-31T12:09:51;99231.84;;;14.01;100.00
14269;BME280;7218;51.480;7.006;2023-07-31T12:12:20;99227.69;;;13.97;100.00
14269;BME280;7218;51.480;7.006;2023-07-31T12:14:47;99224.72;;;13.86;100.00
14269;BME280;7218;51.480;7.006;2023-07-31T12:17:15;99219.97;;;13.94;100.00
14269;BME280;7218;51.480;7.006;2023-07-31T12:19:42;99222.38;;;13.98;100.00
14269;BME280;7218;51.480;7.006;2023-07-31T12:22:11;99218.81;;;13.99;100.00
14269;BME280;7218;51.480;7.006;2023-07-31T12:24:39;99212.16;;;13.58;100.00
14269;BME280;7218;51.480;7.006;2023-07-31T12:27:09;99232.44;;;13.71;100.00
14269;BME280;7218;51.480;7.006;2023-07-31T12:29:36;99216.94;;;13.31;100.00
14269;BME280;7218;51.480;7.006;2023-07-31T12:32:02;99225.19;;;13.41;100.00
14269;BME280;7218;51.480;7.006;2023-07-31T12:34:30;99207.38;;;13.49;100.00
14269;BME280;7218;51.480;7.006;2023-07-31T12:36:57;99207.75;;;13.75;100.00
14269;BME280;7218;51.480;7.006;2023-07-31T12:39:24;99203.22;;;13.62;100.00
14269;BME280;7218;51.480;7.006;2023-07-31T12:41:51;99213.69;;;13.62;100.00
14269;BME280;7218;51.480;7.006;2023-07-31T12:44:17;99196.38;;;14.11;100.00
14269;BME280;7218;51.480;7.006;2023-07-31T12:46:44;99187.44;;;14.65;100.00
14269;BME280;7218;51.480;7.006;2023-07-31T12:49:10;99194.59;;;14.79;100.00
14269;BME280;7218;51.480;7.006;2023-07-31T12:51:38;99209.47;;;14.28;100.00
14269;BME280;7218;51.480;7.006;2023-07-31T12:54:05;99200.34;;;14.35;100.00
14269;BME280;7218;51.480;7.006;2023-07-31T12:56:32;99193.97;;;14.23;100.00
14269;BME280;7218;51.480;7.006;2023-07-31T12:58:59;99196.66;;;14.05;100.00
14269;BME280;7218;51.480;7.006;2023-07-31T13:01:25;99191.53;;;14.03;100.00